Terminal Aerodrome Forecast
Issued by NWS

Home | Current Version | Previous Version | Text Only | Print | Product List | Glossary On
Versions: 1 2 3 4 5 6 7 8 9 10 11 12 13 14 15 16 17 18 19 20 21 22 23 24 25 26 27 28
032
FTPA31 PHFO 101933 AAA
TAFHNY
TAF AMD
PHNY 101933Z 1020/1118 14007KT 4SM RA BR SCT013 BKN030 OVC060
      TEMPO 1020/1022 3SM RA BR BKN015 BKN030
     FM102300 15007KT 6SM RA SCT015 BKN035 OVC080
     FM110600 VRB05KT P6SM VCSH FEW015 BKN035 OVC080=

USA.gov is the U.S. government's official web portal to all federal, state and local government web resources and services.